sensor_id;sensor_type;location;lat;lon;timestamp;pressure;altitude;pressure_sealevel;temperature;humidity
27840;BME280;15207;42.182;24.308;2023-01-28T00:01:08;98485.63;;;3.54;82.77
27840;BME280;15207;42.182;24.308;2023-01-28T00:03:34;98487.91;;;3.60;83.80
27840;BME280;15207;42.182;24.308;2023-01-28T00:06:05;98488.03;;;3.44;82.68
27840;BME280;15207;42.182;24.308;2023-01-28T00:08:31;98493.00;;;3.49;82.95
27840;BME280;15207;42.182;24.308;2023-01-28T00:11:00;98489.53;;;3.48;83.43
27840;BME280;15207;42.182;24.308;2023-01-28T00:13:26;98504.56;;;3.48;83.18
27840;BME280;15207;42.182;24.308;2023-01-28T00:15:56;98494.75;;;3.50;83.14
27840;BME280;15207;42.182;24.308;2023-01-28T00:18:24;98491.88;;;3.38;82.66
27840;BME280;15207;42.182;24.308;2023-01-28T00:23:26;98503.25;;;3.55;83.33
27840;BME280;15207;42.182;24.308;2023-01-28T00:25:53;98503.81;;;3.46;83.86
27840;BME280;15207;42.182;24.308;2023-01-28T00:28:20;98512.81;;;3.28;83.38
27840;BME280;15207;42.182;24.308;2023-01-28T00:30:46;98505.41;;;3.34;83.50
27840;BME280;15207;42.182;24.308;2023-01-28T00:33:11;98512.50;;;3.48;83.38
27840;BME280;15207;42.182;24.308;2023-01-28T00:35:37;98516.56;;;3.53;83.45
27840;BME280;15207;42.182;24.308;2023-01-28T00:38:02;98522.81;;;3.52;82.91
27840;BME280;15207;42.182;24.308;2023-01-28T00:40:29;98525.25;;;3.55;81.94
27840;BME280;15207;42.182;24.308;2023-01-28T00:42:54;98529.25;;;3.48;82.15
27840;BME280;15207;42.182;24.308;2023-01-28T00:45:20;98526.78;;;3.60;82.46
27840;BME280;15207;42.182;24.308;2023-01-28T00:47:46;98531.91;;;3.48;82.25
27840;BME280;15207;42.182;24.308;2023-01-28T00:50:12;98528.84;;;3.54;82.47
27840;BME280;15207;42.182;24.308;2023-01-28T00:52:38;98536.25;;;3.49;83.00
27840;BME280;15207;42.182;24.308;2023-01-28T00:55:04;98524.44;;;3.40;83.91
27840;BME280;15207;42.182;24.308;2023-01-28T00:57:30;98534.06;;;3.41;83.52
27840;BME280;15207;42.182;24.308;2023-01-28T00:59:55;98536.53;;;3.44;83.44
27840;BME280;15207;42.182;24.308;2023-01-28T01:02:21;98533.13;;;3.42;83.27
27840;BME280;15207;42.182;24.308;2023-01-28T01:04:46;98532.72;;;3.49;83.41
27840;BME280;15207;42.182;24.308;2023-01-28T01:07:23;98544.09;;;3.51;83.28
27840;BME280;15207;42.182;24.308;2023-01-28T01:10:13;98537.28;;;3.61;83.51
27840;BME280;15207;42.182;24.308;2023-01-28T01:12:39;98538.22;;;3.60;82.60
27840;BME280;15207;42.182;24.308;2023-01-28T01:15:06;98541.06;;;3.57;83.19
27840;BME280;15207;42.182;24.308;2023-01-28T01:17:36;98541.34;;;3.52;83.76
27840;BME280;15207;42.182;24.308;2023-01-28T01:20:04;98537.66;;;3.40;83.24
27840;BME280;15207;42.182;24.308;2023-01-28T01:22:34;98537.84;;;3.37;82.77
27840;BME280;15207;42.182;24.308;2023-01-28T01:25:00;98537.66;;;3.40;83.21
27840;BME280;15207;42.182;24.308;2023-01-28T01:27:25;98543.63;;;3.59;83.14
27840;BME280;15207;42.182;24.308;2023-01-28T01:29:51;98547.31;;;3.56;82.16
27840;BME280;15207;42.182;24.308;2023-01-28T01:32:16;98552.22;;;3.48;81.79
27840;BME280;15207;42.182;24.308;2023-01-28T01:34:43;98550.34;;;3.50;82.67
27840;BME280;15207;42.182;24.308;2023-01-28T01:37:08;98549.56;;;3.48;82.26
27840;BME280;15207;42.182;24.308;2023-01-28T01:39:35;98558.94;;;3.53;82.98
27840;BME280;15207;42.182;24.308;2023-01-28T01:42:00;98555.06;;;3.44;82.70
27840;BME280;15207;42.182;24.308;2023-01-28T01:47:14;98550.69;;;3.43;82.00
27840;BME280;15207;42.182;24.308;2023-01-28T01:49:41;98553.25;;;3.30;81.88
27840;BME280;15207;42.182;24.308;2023-01-28T01:52:10;98548.25;;;3.40;81.82
27840;BME280;15207;42.182;24.308;2023-01-28T01:54:38;98559.69;;;3.41;81.18
27840;BME280;15207;42.182;24.308;2023-01-28T01:57:08;98558.56;;;3.45;81.87
27840;BME280;15207;42.182;24.308;2023-01-28T01:59:36;98550.03;;;3.40;82.43
27840;BME280;15207;42.182;24.308;2023-01-28T02:02:04;98558.16;;;3.51;81.55
27840;BME280;15207;42.182;24.308;2023-01-28T02:04:34;98556.94;;;3.42;81.54
27840;BME280;15207;42.182;24.308;2023-01-28T02:07:02;98564.31;;;3.37;81.36
27840;BME280;15207;42.182;24.308;2023-01-28T02:09:30;98561.41;;;3.42;81.67
27840;BME280;15207;42.182;24.308;2023-01-28T02:12:12;98572.63;;;3.31;81.53
27840;BME280;15207;42.182;24.308;2023-01-28T02:14:42;98574.63;;;3.42;82.03
27840;BME280;15207;42.182;24.308;2023-01-28T02:17:09;98576.25;;;3.44;81.32
27840;BME280;15207;42.182;24.308;2023-01-28T02:19:43;98579.25;;;3.38;80.96
27840;BME280;15207;42.182;24.308;2023-01-28T02:22:18;98578.50;;;3.36;80.78
27840;BME280;15207;42.182;24.308;2023-01-28T02:27:47;98586.75;;;3.32;80.62
27840;BME280;15207;42.182;24.308;2023-01-28T02:30:21;98591.22;;;3.15;81.10
27840;BME280;15207;42.182;24.308;2023-01-28T02:32:55;98589.69;;;3.11;81.26
27840;BME280;15207;42.182;24.308;2023-01-28T02:35:34;98592.47;;;3.09;80.72
27840;BME280;15207;42.182;24.308;2023-01-28T02:40:33;98587.19;;;3.38;80.08
27840;BME280;15207;42.182;24.308;2023-01-28T02:43:44;98580.56;;;3.31;78.96
27840;BME280;15207;42.182;24.308;2023-01-28T02:46:20;98586.16;;;3.41;78.13
27840;BME280;15207;42.182;24.308;2023-01-28T02:49:15;98588.59;;;3.29;79.19
27840;BME280;15207;42.182;24.308;2023-01-28T02:54:39;98594.94;;;3.27;78.69
27840;BME280;15207;42.182;24.308;2023-01-28T02:57:44;98586.81;;;3.30;79.04
27840;BME280;15207;42.182;24.308;2023-01-28T03:00:39;98598.78;;;3.07;78.79
27840;BME280;15207;42.182;24.308;2023-01-28T03:03:15;98588.78;;;3.12;79.85
27840;BME280;15207;42.182;24.308;2023-01-28T03:05:54;98597.19;;;3.18;79.58
27840;BME280;15207;42.182;24.308;2023-01-28T03:08:57;98595.69;;;3.14;78.99
27840;BME280;15207;42.182;24.308;2023-01-28T03:11:43;98592.25;;;3.12;79.31
27840;BME280;15207;42.182;24.308;2023-01-28T03:14:29;98600.53;;;3.22;79.38
27840;BME280;15207;42.182;24.308;2023-01-28T03:20:24;98593.97;;;3.13;79.66
27840;BME280;15207;42.182;24.308;2023-01-28T03:23:13;98602.19;;;3.09;80.35
27840;BME280;15207;42.182;24.308;2023-01-28T03:26:00;98601.16;;;3.11;80.32
27840;BME280;15207;42.182;24.308;2023-01-28T03:28:45;98607.56;;;3.07;80.46
27840;BME280;15207;42.182;24.308;2023-01-28T03:31:32;98602.59;;;3.17;79.69
27840;BME280;15207;42.182;24.308;2023-01-28T03:34:19;98601.16;;;3.11;79.55
27840;BME280;15207;42.182;24.308;2023-01-28T03:37:04;98617.53;;;3.18;78.48
27840;BME280;15207;42.182;24.308;2023-01-28T03:39:30;98615.44;;;3.23;78.59
27840;BME280;15207;42.182;24.308;2023-01-28T03:42:04;98613.25;;;3.15;78.22
27840;BME280;15207;42.182;24.308;2023-01-28T03:44:31;98613.84;;;3.21;79.24
27840;BME280;15207;42.182;24.308;2023-01-28T03:47:22;98616.28;;;3.09;79.07
27840;BME280;15207;42.182;24.308;2023-01-28T03:49:50;98617.22;;;3.23;78.95
27840;BME280;15207;42.182;24.308;2023-01-28T03:52:18;98616.28;;;3.24;78.41
27840;BME280;15207;42.182;24.308;2023-01-28T03:54:45;98625.66;;;3.29;78.95
27840;BME280;15207;42.182;24.308;2023-01-28T03:57:19;98624.84;;;3.29;77.94
27840;BME280;15207;42.182;24.308;2023-01-28T03:59:45;98628.59;;;3.25;78.22
27840;BME280;15207;42.182;24.308;2023-01-28T04:02:14;98627.47;;;3.29;78.08
27840;BME280;15207;42.182;24.308;2023-01-28T04:04:39;98634.47;;;3.30;78.00
27840;BME280;15207;42.182;24.308;2023-01-28T04:07:06;98626.44;;;3.32;77.55
27840;BME280;15207;42.182;24.308;2023-01-28T04:09:33;98632.41;;;3.35;78.31
27840;BME280;15207;42.182;24.308;2023-01-28T04:12:00;98633.31;;;3.20;78.75
27840;BME280;15207;42.182;24.308;2023-01-28T04:14:26;98629.50;;;3.24;79.58
27840;BME280;15207;42.182;24.308;2023-01-28T04:16:51;98634.94;;;3.22;78.74
27840;BME280;15207;42.182;24.308;2023-01-28T04:19:19;98630.66;;;3.20;78.44
27840;BME280;15207;42.182;24.308;2023-01-28T04:21:45;98642.28;;;3.17;78.60
27840;BME280;15207;42.182;24.308;2023-01-28T04:24:12;98637.75;;;3.19;78.99
27840;BME280;15207;42.182;24.308;2023-01-28T04:26:38;98638.59;;;3.20;79.54
27840;BME280;15207;42.182;24.308;2023-01-28T04:29:03;98641.75;;;3.26;78.55
27840;BME280;15207;42.182;24.308;2023-01-28T04:31:30;98638.59;;;3.20;78.83
27840;BME280;15207;42.182;24.308;2023-01-28T04:33:55;98644.44;;;3.10;79.40
27840;BME280;15207;42.182;24.308;2023-01-28T04:36:21;98654.69;;;3.00;79.79
27840;BME280;15207;42.182;24.308;2023-01-28T04:38:47;98653.56;;;3.04;80.00
27840;BME280;15207;42.182;24.308;2023-01-28T04:41:12;98649.06;;;3.07;79.47
27840;BME280;15207;42.182;24.308;2023-01-28T04:43:37;98650.69;;;3.09;79.17
27840;BME280;15207;42.182;24.308;2023-01-28T04:46:03;98657.75;;;3.09;79.24
27840;BME280;15207;42.182;24.308;2023-01-28T04:48:29;98649.81;;;3.09;79.73
27840;BME280;15207;42.182;24.308;2023-01-28T04:50:55;98649.97;;;3.06;79.68
27840;BME280;15207;42.182;24.308;2023-01-28T04:53:21;98661.50;;;3.04;79.56
27840;BME280;15207;42.182;24.308;2023-01-28T04:55:46;98661.25;;;3.09;79.42
27840;BME280;15207;42.182;24.308;2023-01-28T04:58:12;98667.09;;;3.00;80.22
27840;BME280;15207;42.182;24.308;2023-01-28T05:00:37;98665.63;;;2.94;79.50
27840;BME280;15207;42.182;24.308;2023-01-28T05:03:03;98665.81;;;2.91;80.34
27840;BME280;15207;42.182;24.308;2023-01-28T05:05:28;98673.06;;;2.87;80.62
27840;BME280;15207;42.182;24.308;2023-01-28T05:07:55;98679.13;;;2.89;80.29
27840;BME280;15207;42.182;24.308;2023-01-28T05:10:21;98682.63;;;2.90;80.81
27840;BME280;15207;42.182;24.308;2023-01-28T05:12:47;98682.28;;;2.96;81.07
27840;BME280;15207;42.182;24.308;2023-01-28T05:15:17;98686.03;;;2.92;80.40
27840;BME280;15207;42.182;24.308;2023-01-28T05:17:43;98696.50;;;2.94;80.50
27840;BME280;15207;42.182;24.308;2023-01-28T05:20:09;98708.75;;;2.96;80.69
27840;BME280;15207;42.182;24.308;2023-01-28T05:22:35;98703.53;;;2.95;80.52
27840;BME280;15207;42.182;24.308;2023-01-28T05:25:00;98708.09;;;3.07;80.47
27840;BME280;15207;42.182;24.308;2023-01-28T05:27:28;98705.28;;;3.10;80.34
27840;BME280;15207;42.182;24.308;2023-01-28T05:29:53;98710.97;;;3.18;80.03
27840;BME280;15207;42.182;24.308;2023-01-28T05:32:19;98705.53;;;3.22;79.97
27840;BME280;15207;42.182;24.308;2023-01-28T05:34:44;98706.19;;;3.25;79.61
27840;BME280;15207;42.182;24.308;2023-01-28T05:37:10;98718.50;;;3.26;79.69
27840;BME280;15207;42.182;24.308;2023-01-28T05:39:35;98720.44;;;3.23;80.07
27840;BME280;15207;42.182;24.308;2023-01-28T05:42:01;98715.94;;;3.25;80.12
27840;BME280;15207;42.182;24.308;2023-01-28T05:44:26;98713.41;;;3.07;80.43
27840;BME280;15207;42.182;24.308;2023-01-28T05:46:52;98721.84;;;3.14;80.24
27840;BME280;15207;42.182;24.308;2023-01-28T05:49:17;98727.88;;;3.16;80.29
27840;BME280;15207;42.182;24.308;2023-01-28T05:51:42;98726.28;;;3.13;80.16
27840;BME280;15207;42.182;24.308;2023-01-28T05:54:08;98725.53;;;3.11;80.53
27840;BME280;15207;42.182;24.308;2023-01-28T05:56:34;98726.72;;;3.06;80.60
27840;BME280;15207;42.182;24.308;2023-01-28T05:59:01;98734.31;;;3.12;80.53
27840;BME280;15207;42.182;24.308;2023-01-28T06:01:27;98739.25;;;3.18;80.36
27840;BME280;15207;42.182;24.308;2023-01-28T06:03:53;98751.31;;;3.08;80.56
27840;BME280;15207;42.182;24.308;2023-01-28T06:06:19;98752.06;;;3.10;80.85
27840;BME280;15207;42.182;24.308;2023-01-28T06:08:45;98749.69;;;3.05;82.06
27840;BME280;15207;42.182;24.308;2023-01-28T06:11:10;98745.66;;;3.14;81.33
27840;BME280;15207;42.182;24.308;2023-01-28T06:13:35;98753.06;;;3.23;81.21
27840;BME280;15207;42.182;24.308;2023-01-28T06:16:02;98756.38;;;3.27;80.29
27840;BME280;15207;42.182;24.308;2023-01-28T06:18:28;98762.56;;;3.27;80.24
27840;BME280;15207;42.182;24.308;2023-01-28T06:20:53;98770.72;;;3.39;79.71
27840;BME280;15207;42.182;24.308;2023-01-28T06:23:19;98767.13;;;3.40;79.76
27840;BME280;15207;42.182;24.308;2023-01-28T06:25:44;98775.56;;;3.47;79.41
27840;BME280;15207;42.182;24.308;2023-01-28T06:28:11;98781.44;;;3.52;79.07
27840;BME280;15207;42.182;24.308;2023-01-28T06:30:37;98791.44;;;3.47;79.25
27840;BME280;15207;42.182;24.308;2023-01-28T06:33:02;98785.22;;;3.48;78.57
27840;BME280;15207;42.182;24.308;2023-01-28T06:35:28;98788.72;;;3.48;78.74
27840;BME280;15207;42.182;24.308;2023-01-28T06:37:53;98796.38;;;3.53;77.88
27840;BME280;15207;42.182;24.308;2023-01-28T06:40:20;98793.94;;;3.50;78.03
27840;BME280;15207;42.182;24.308;2023-01-28T06:42:47;98799.28;;;3.64;77.99
27840;BME280;15207;42.182;24.308;2023-01-28T06:45:13;98807.03;;;3.67;78.16
27840;BME280;15207;42.182;24.308;2023-01-28T06:47:39;98805.25;;;3.68;77.61
27840;BME280;15207;42.182;24.308;2023-01-28T06:50:05;98807.25;;;3.79;77.79
27840;BME280;15207;42.182;24.308;2023-01-28T06:52:30;98812.38;;;3.82;78.25
27840;BME280;15207;42.182;24.308;2023-01-28T06:54:56;98802.94;;;3.92;76.93
27840;BME280;15207;42.182;24.308;2023-01-28T06:57:21;98816.84;;;3.96;77.05
27840;BME280;15207;42.182;24.308;2023-01-28T06:59:47;98815.94;;;3.97;76.47
27840;BME280;15207;42.182;24.308;2023-01-28T07:02:12;98816.75;;;3.97;77.01
27840;BME280;15207;42.182;24.308;2023-01-28T07:04:37;98818.28;;;4.02;76.92
27840;BME280;15207;42.182;24.308;2023-01-28T07:07:03;98815.94;;;4.12;76.13
27840;BME280;15207;42.182;24.308;2023-01-28T07:09:28;98821.38;;;4.25;75.90
27840;BME280;15207;42.182;24.308;2023-01-28T07:11:54;98825.63;;;4.27;75.90
27840;BME280;15207;42.182;24.308;2023-01-28T07:14:19;98829.69;;;4.33;75.48
27840;BME280;15207;42.182;24.308;2023-01-28T07:16:45;98832.34;;;4.47;75.99
27840;BME280;15207;42.182;24.308;2023-01-28T07:19:10;98828.50;;;4.68;75.02
27840;BME280;15207;42.182;24.308;2023-01-28T07:21:36;98836.06;;;4.74;74.63
27840;BME280;15207;42.182;24.308;2023-01-28T07:24:01;98835.19;;;4.88;74.59
27840;BME280;15207;42.182;24.308;2023-01-28T07:26:29;98845.13;;;4.99;74.24
27840;BME280;15207;42.182;24.308;2023-01-28T07:28:55;98837.16;;;4.99;73.62
27840;BME280;15207;42.182;24.308;2023-01-28T07:31:21;98847.19;;;5.23;74.10
27840;BME280;15207;42.182;24.308;2023-01-28T07:33:46;98845.03;;;5.42;72.19
27840;BME280;15207;42.182;24.308;2023-01-28T07:36:12;98852.84;;;5.59;71.12
27840;BME280;15207;42.182;24.308;2023-01-28T07:38:38;98846.72;;;5.71;72.05
27840;BME280;15207;42.182;24.308;2023-01-28T07:41:03;98853.06;;;5.96;70.24
27840;BME280;15207;42.182;24.308;2023-01-28T07:43:29;98848.50;;;5.98;66.58
27840;BME280;15207;42.182;24.308;2023-01-28T07:45:54;98853.94;;;6.09;66.56
27840;BME280;15207;42.182;24.308;2023-01-28T07:48:20;98870.16;;;6.19;66.15
27840;BME280;15207;42.182;24.308;2023-01-28T07:50:45;98856.19;;;6.03;64.22
27840;BME280;15207;42.182;24.308;2023-01-28T07:53:12;98862.75;;;5.97;63.03
27840;BME280;15207;42.182;24.308;2023-01-28T07:55:38;98863.69;;;5.96;64.46
27840;BME280;15207;42.182;24.308;2023-01-28T07:58:05;98871.78;;;5.94;64.34
27840;BME280;15207;42.182;24.308;2023-01-28T08:00:33;98872.22;;;6.01;66.11
27840;BME280;15207;42.182;24.308;2023-01-28T08:03:00;98869.50;;;6.03;65.09
27840;BME280;15207;42.182;24.308;2023-01-28T08:05:32;98866.75;;;5.90;63.77
27840;BME280;15207;42.182;24.308;2023-01-28T08:08:03;98874.72;;;5.90;63.97
27840;BME280;15207;42.182;24.308;2023-01-28T08:10:28;98881.97;;;5.88;64.04
27840;BME280;15207;42.182;24.308;2023-01-28T08:12:56;98883.28;;;5.95;65.32
27840;BME280;15207;42.182;24.308;2023-01-28T08:15:23;98885.53;;;5.74;64.35
27840;BME280;15207;42.182;24.308;2023-01-28T08:17:49;98891.03;;;5.71;64.89
27840;BME280;15207;42.182;24.308;2023-01-28T08:20:15;98892.75;;;5.72;65.01
27840;BME280;15207;42.182;24.308;2023-01-28T08:22:41;98884.97;;;5.68;65.08
27840;BME280;15207;42.182;24.308;2023-01-28T08:25:07;98896.94;;;5.61;63.68
27840;BME280;15207;42.182;24.308;2023-01-28T08:27:33;98894.38;;;5.60;65.11
27840;BME280;15207;42.182;24.308;2023-01-28T08:29:58;98904.09;;;5.61;65.26
27840;BME280;15207;42.182;24.308;2023-01-28T08:32:23;98898.22;;;5.55;63.42
27840;BME280;15207;42.182;24.308;2023-01-28T08:34:49;98897.50;;;5.66;64.82
27840;BME280;15207;42.182;24.308;2023-01-28T08:37:15;98896.75;;;5.64;63.63
27840;BME280;15207;42.182;24.308;2023-01-28T08:39:40;98900.00;;;5.55;63.85
27840;BME280;15207;42.182;24.308;2023-01-28T08:42:07;98900.94;;;5.68;65.62
27840;BME280;15207;42.182;24.308;2023-01-28T08:44:32;98901.72;;;5.56;65.09
27840;BME280;15207;42.182;24.308;2023-01-28T08:46:58;98905.09;;;5.73;65.31
27840;BME280;15207;42.182;24.308;2023-01-28T08:49:23;98905.84;;;5.75;63.74
27840;BME280;15207;42.182;24.308;2023-01-28T08:51:49;98912.59;;;5.66;64.80
27840;BME280;15207;42.182;24.308;2023-01-28T08:54:14;98903.69;;;5.67;65.35
27840;BME280;15207;42.182;24.308;2023-01-28T08:56:40;98910.78;;;5.66;63.82
27840;BME280;15207;42.182;24.308;2023-01-28T08:59:11;98914.22;;;5.68;63.57
27840;BME280;15207;42.182;24.308;2023-01-28T09:01:37;98916.78;;;5.70;63.88
27840;BME280;15207;42.182;24.308;2023-01-28T09:04:02;98922.38;;;5.65;63.06
27840;BME280;15207;42.182;24.308;2023-01-28T09:06:28;98912.69;;;5.64;63.75
27840;BME280;15207;42.182;24.308;2023-01-28T09:08:55;98926.53;;;5.69;63.76
27840;BME280;15207;42.182;24.308;2023-01-28T09:11:21;98919.72;;;5.93;64.88
27840;BME280;15207;42.182;24.308;2023-01-28T09:13:46;98924.19;;;5.92;63.31
27840;BME280;15207;42.182;24.308;2023-01-28T09:16:12;98931.00;;;5.96;64.70
27840;BME280;15207;42.182;24.308;2023-01-28T09:18:37;98933.56;;;5.98;62.99
27840;BME280;15207;42.182;24.308;2023-01-28T09:21:06;98932.03;;;5.94;62.81
27840;BME280;15207;42.182;24.308;2023-01-28T09:23:36;98941.94;;;5.92;62.59
27840;BME280;15207;42.182;24.308;2023-01-28T09:26:02;98942.91;;;5.91;63.29
27840;BME280;15207;42.182;24.308;2023-01-28T09:28:28;98938.63;;;6.03;63.31
27840;BME280;15207;42.182;24.308;2023-01-28T09:30:59;98934.31;;;6.00;63.45
27840;BME280;15207;42.182;24.308;2023-01-28T09:33:25;98924.81;;;6.11;63.77
27840;BME280;15207;42.182;24.308;2023-01-28T09:35:50;98934.78;;;6.07;62.95
27840;BME280;15207;42.182;24.308;2023-01-28T09:38:16;98930.16;;;6.24;63.41
27840;BME280;15207;42.182;24.308;2023-01-28T09:40:42;98931.78;;;6.39;63.24
27840;BME280;15207;42.182;24.308;2023-01-28T09:46:02;98923.38;;;6.45;60.78
27840;BME280;15207;42.182;24.308;2023-01-28T09:48:33;98925.94;;;6.60;62.29
27840;BME280;15207;42.182;24.308;2023-01-28T09:51:03;98928.41;;;6.76;61.66
27840;BME280;15207;42.182;24.308;2023-01-28T09:53:36;98931.19;;;6.74;61.80
27840;BME280;15207;42.182;24.308;2023-01-28T09:56:18;98929.78;;;6.95;60.26
27840;BME280;15207;42.182;24.308;2023-01-28T09:58:46;98934.03;;;6.97;59.16
27840;BME280;15207;42.182;24.308;2023-01-28T10:01:59;98931.72;;;6.93;59.24
27840;BME280;15207;42.182;24.308;2023-01-28T10:10:38;98938.00;;;6.79;58.90
27840;BME280;15207;42.182;24.308;2023-01-28T10:13:44;98943.22;;;6.80;59.09
27840;BME280;15207;42.182;24.308;2023-01-28T10:16:18;98932.03;;;6.88;57.65
27840;BME280;15207;42.182;24.308;2023-01-28T10:19:09;98942.34;;;6.93;57.80
27840;BME280;15207;42.182;24.308;2023-01-28T10:21:51;98933.50;;;6.92;58.57
27840;BME280;15207;42.182;24.308;2023-01-28T10:24:26;98939.56;;;7.20;59.80
27840;BME280;15207;42.182;24.308;2023-01-28T10:26:54;98936.53;;;7.38;56.39
27840;BME280;15207;42.182;24.308;2023-01-28T10:29:23;98934.38;;;7.56;58.94
27840;BME280;15207;42.182;24.308;2023-01-28T10:31:55;98937.13;;;7.67;54.98
27840;BME280;15207;42.182;24.308;2023-01-28T10:34:23;98935.78;;;7.86;54.40
27840;BME280;15207;42.182;24.308;2023-01-28T10:36:49;98945.09;;;7.92;54.04
27840;BME280;15207;42.182;24.308;2023-01-28T10:39:18;98941.88;;;8.00;53.75
27840;BME280;15207;42.182;24.308;2023-01-28T10:41:44;98941.78;;;8.01;54.81
27840;BME280;15207;42.182;24.308;2023-01-28T10:44:31;98943.91;;;8.20;53.97
27840;BME280;15207;42.182;24.308;2023-01-28T10:47:00;98944.66;;;8.23;52.75
27840;BME280;15207;42.182;24.308;2023-01-28T10:49:28;98934.63;;;8.38;54.66
27840;BME280;15207;42.182;24.308;2023-01-28T10:51:55;98942.81;;;8.47;53.98
27840;BME280;15207;42.182;24.308;2023-01-28T10:54:25;98941.06;;;8.71;52.73
27840;BME280;15207;42.182;24.308;2023-01-28T10:56:57;98948.00;;;8.73;51.61
27840;BME280;15207;42.182;24.308;2023-01-28T11:02:03;98933.56;;;8.88;51.31
27840;BME280;15207;42.182;24.308;2023-01-28T11:04:31;98936.31;;;8.63;51.58
27840;BME280;15207;42.182;24.308;2023-01-28T11:07:03;98939.88;;;8.75;50.56
27840;BME280;15207;42.182;24.308;2023-01-28T11:09:34;98941.28;;;8.56;51.47
27840;BME280;15207;42.182;24.308;2023-01-28T11:17:21;98939.00;;;8.63;51.65
27840;BME280;15207;42.182;24.308;2023-01-28T11:19:53;98945.91;;;8.66;52.72
27840;BME280;15207;42.182;24.308;2023-01-28T11:22:35;98934.00;;;8.58;50.81
27840;BME280;15207;42.182;24.308;2023-01-28T11:25:06;98931.63;;;8.42;52.27
27840;BME280;15207;42.182;24.308;2023-01-28T11:27:38;98943.63;;;8.48;53.79
27840;BME280;15207;42.182;24.308;2023-01-28T11:30:04;98940.44;;;8.31;52.20
27840;BME280;15207;42.182;24.308;2023-01-28T11:32:32;98937.28;;;8.38;52.07
27840;BME280;15207;42.182;24.308;2023-01-28T11:34:58;98929.19;;;8.51;52.56
27840;BME280;15207;42.182;24.308;2023-01-28T11:37:26;98935.13;;;8.43;51.65
27840;BME280;15207;42.182;24.308;2023-01-28T11:40:09;98940.03;;;8.49;51.80
27840;BME280;15207;42.182;24.308;2023-01-28T11:42:41;98935.78;;;8.22;52.21
27840;BME280;15207;42.182;24.308;2023-01-28T11:45:15;98937.22;;;8.15;53.12
27840;BME280;15207;42.182;24.308;2023-01-28T11:47:56;98938.94;;;8.16;53.52
27840;BME280;15207;42.182;24.308;2023-01-28T11:50:43;98949.09;;;8.11;53.27
27840;BME280;15207;42.182;24.308;2023-01-28T12:09:54;98955.34;;;6.97;56.97
27840;BME280;15207;42.182;24.308;2023-01-28T12:12:26;98945.97;;;7.05;57.19
27840;BME280;15207;42.182;24.308;2023-01-28T12:29:32;98954.50;;;6.84;58.63
27840;BME280;15207;42.182;24.308;2023-01-28T12:43:59;98966.06;;;6.57;59.47
27840;BME280;15207;42.182;24.308;2023-01-28T12:49:18;98972.25;;;6.70;58.78
27840;BME280;15207;42.182;24.308;2023-01-28T12:54:56;98972.97;;;6.46;59.54
27840;BME280;15207;42.182;24.308;2023-01-28T12:57:26;98965.13;;;6.58;60.04
27840;BME280;15207;42.182;24.308;2023-01-28T13:00:35;98966.38;;;6.52;60.30
27840;BME280;15207;42.182;24.308;2023-01-28T13:03:37;98964.59;;;6.66;60.68
27840;BME280;15207;42.182;24.308;2023-01-28T13:06:14;98967.69;;;6.72;59.23
27840;BME280;15207;42.182;24.308;2023-01-28T13:08:42;98982.41;;;6.91;59.83
27840;BME280;15207;42.182;24.308;2023-01-28T13:11:13;98979.09;;;6.87;59.00
27840;BME280;15207;42.182;24.308;2023-01-28T13:13:41;98980.25;;;6.70;60.53
27840;BME280;15207;42.182;24.308;2023-01-28T13:16:09;98980.69;;;6.90;60.33
27840;BME280;15207;42.182;24.308;2023-01-28T13:21:05;98988.06;;;6.99;59.26
27840;BME280;15207;42.182;24.308;2023-01-28T13:23:41;98989.66;;;6.89;57.84
27840;BME280;15207;42.182;24.308;2023-01-28T13:26:10;98986.44;;;6.97;57.34
27840;BME280;15207;42.182;24.308;2023-01-28T13:28:36;98991.75;;;6.71;58.19
27840;BME280;15207;42.182;24.308;2023-01-28T13:31:13;98997.09;;;6.71;58.77
27840;BME280;15207;42.182;24.308;2023-01-28T13:33:46;98997.09;;;6.71;58.84
27840;BME280;15207;42.182;24.308;2023-01-28T13:38:47;99005.78;;;6.60;58.58
27840;BME280;15207;42.182;24.308;2023-01-28T13:41:13;99000.44;;;6.47;59.53
27840;BME280;15207;42.182;24.308;2023-01-28T13:43:40;99010.97;;;6.48;59.08
27840;BME280;15207;42.182;24.308;2023-01-28T13:46:27;99006.09;;;6.55;59.37
27840;BME280;15207;42.182;24.308;2023-01-28T13:48:55;99009.50;;;6.17;60.10
27840;BME280;15207;42.182;24.308;2023-01-28T13:51:25;99011.19;;;6.18;60.64
27840;BME280;15207;42.182;24.308;2023-01-28T13:54:01;99017.38;;;6.18;60.60
27840;BME280;15207;42.182;24.308;2023-01-28T13:56:31;99019.66;;;6.10;60.64
27840;BME280;15207;42.182;24.308;2023-01-28T14:07:15;99030.75;;;6.17;61.05
27840;BME280;15207;42.182;24.308;2023-01-28T14:17:54;99038.44;;;6.21;60.60
27840;BME280;15207;42.182;24.308;2023-01-28T14:22:58;99042.38;;;6.16;61.28
27840;BME280;15207;42.182;24.308;2023-01-28T14:28:22;99040.53;;;6.16;61.29
27840;BME280;15207;42.182;24.308;2023-01-28T14:31:06;99060.59;;;6.07;61.09
27840;BME280;15207;42.182;24.308;2023-01-28T14:33:36;99049.88;;;5.94;61.15
27840;BME280;15207;42.182;24.308;2023-01-28T14:36:02;99049.88;;;5.94;62.45
27840;BME280;15207;42.182;24.308;2023-01-28T14:38:32;99057.94;;;5.93;62.50
27840;BME280;15207;42.182;24.308;2023-01-28T14:41:04;99054.84;;;5.72;62.41
27840;BME280;15207;42.182;24.308;2023-01-28T14:43:30;99055.22;;;5.80;63.97
27840;BME280;15207;42.182;24.308;2023-01-28T14:54:09;99078.56;;;5.89;63.04
27840;BME280;15207;42.182;24.308;2023-01-28T14:56:58;99069.34;;;5.95;63.81
27840;BME280;15207;42.182;24.308;2023-01-28T14:59:36;99080.09;;;5.79;64.48
27840;BME280;15207;42.182;24.308;2023-01-28T15:02:22;99072.94;;;5.79;64.97
27840;BME280;15207;42.182;24.308;2023-01-28T15:04:49;99074.22;;;5.74;64.21
27840;BME280;15207;42.182;24.308;2023-01-28T15:07:21;99096.31;;;5.74;64.87
27840;BME280;15207;42.182;24.308;2023-01-28T15:13:07;99098.31;;;5.71;64.73
27840;BME280;15207;42.182;24.308;2023-01-28T15:15:36;99108.84;;;5.72;64.73